Time;durP1;ratioP1;P1;durP2;ratioP2;P2;SDS_P1;SDS_P2;PMS_P1;PMS_P2;Temp;Humidity;BMP_temperature;BMP_pressure;BME280_temperature;BME280_humidity;BME280_pressure;Samples;Min_cycle;Max_cycle;Signal;HPM_P1;HPM_P2
2022/10/18 00:00:38;;;;;;;13.55;12.05;;;;;;;22.36;59.60;102339.72;5117617;28;20058;-88
2022/10/18 00:03:05;;;;;;;12.45;11.25;;;;;;;22.38;59.63;102340.47;5136154;28;20051;-87
2022/10/18 00:05:33;;;;;;;12.73;11.18;;;;;;;22.37;59.57;102346.84;5135880;28;20624;-88
2022/10/18 00:08:00;;;;;;;13.13;11.80;;;;;;;22.37;59.81;102341.47;5138352;27;20043;-88
2022/10/18 00:10:28;;;;;;;13.30;11.63;;;;;;;22.36;59.62;102337.91;5106399;27;20073;-90
2022/10/18 00:12:55;;;;;;;14.07;11.45;;;;;;;22.37;59.49;102338.75;5122793;27;20039;-90
2022/10/18 00:15:22;;;;;;;13.02;11.70;;;;;;;22.38;59.65;102335.06;5105293;27;20402;-91
2022/10/18 00:17:50;;;;;;;12.95;11.65;;;;;;;22.36;59.47;102332.50;5122365;27;20058;-90
2022/10/18 00:20:17;;;;;;;12.85;11.55;;;;;;;22.35;59.71;102333.44;5104511;27;20047;-90
2022/10/18 00:22:44;;;;;;;12.48;11.15;;;;;;;22.35;59.65;102333.44;5140743;27;20054;-91
2022/10/18 00:25:12;;;;;;;13.60;12.05;;;;;;;22.35;59.65;102329.91;5141003;27;20054;-90
2022/10/18 00:27:39;;;;;;;14.45;10.82;;;;;;;22.34;59.53;102329.03;5104664;27;20047;-90
2022/10/18 00:30:07;;;;;;;13.50;12.10;;;;;;;22.34;59.72;102320.94;5104706;27;20074;-89
2022/10/18 00:32:36;;;;;;;12.98;11.68;;;;;;;22.34;59.65;102320.94;5122144;27;20054;-90
2022/10/18 00:35:05;;;;;;;12.95;11.65;;;;;;;22.34;59.51;102320.09;5121155;27;20054;-89
2022/10/18 00:37:34;;;;;;;13.13;11.02;;;;;;;22.34;59.63;102329.03;5105413;27;20059;-89
2022/10/18 00:40:01;;;;;;;13.27;11.88;;;;;;;22.34;59.63;102320.09;5140319;27;20070;-88
2022/10/18 00:42:34;;;;;;;13.38;12.07;;;;;;;22.34;59.52;102320.09;5140532;27;20050;-87
2022/10/18 00:45:17;;;;;;;12.90;11.68;;;;;;;22.34;59.54;102317.38;5120818;27;20058;-87
2022/10/18 00:47:50;;;;;;;14.18;11.90;;;;;;;22.35;59.54;102319.09;5140413;27;20477;-86
2022/10/18 00:50:20;;;;;;;12.80;11.45;;;;;;;22.33;59.52;102316.53;5121438;27;20398;-86
2022/10/18 00:53:00;;;;;;;13.13;11.70;;;;;;;22.33;59.50;102305.75;5121409;27;20047;-87
2022/10/18 00:55:30;;;;;;;13.27;11.93;;;;;;;22.33;59.51;102310.28;5121954;27;20047;-87
2022/10/18 00:57:57;;;;;;;15.38;11.93;;;;;;;22.33;59.56;102312.97;5120518;27;20505;-86
2022/10/18 01:00:25;;;;;;;13.85;11.85;;;;;;;22.32;59.56;102304.03;5139408;27;20039;-89
2022/10/18 01:02:53;;;;;;;14.25;12.40;;;;;;;22.31;59.55;102309.53;5103481;27;20047;-86
2022/10/18 01:05:20;;;;;;;12.25;10.98;;;;;;;22.32;59.41;102303.13;5116888;28;20050;-87
2022/10/18 01:08:26;;;;;;;13.02;11.32;;;;;;;22.32;59.38;102300.44;5118196;28;20055;-87
2022/10/18 01:11:03;;;;;;;16.08;11.48;;;;;;;22.32;59.53;102298.63;5019170;28;20057;-87
2022/10/18 01:13:40;;;;;;;12.02;10.82;;;;;;;22.31;59.63;102298.72;5036377;28;20524;-86
2022/10/18 01:16:25;;;;;;;12.95;11.65;;;;;;;22.31;59.58;102304.13;5018238;28;20046;-86
2022/10/18 01:19:18;;;;;;;13.20;11.13;;;;;;;22.33;59.39;102308.44;5018679;28;20057;-86
2022/10/18 01:22:03;;;;;;;12.18;11.00;;;;;;;22.32;59.51;102300.44;5019551;28;20061;-85
2022/10/18 01:24:52;;;;;;;14.20;11.73;;;;;;;22.30;59.38;102294.31;5019794;28;20061;-86
2022/10/18 01:27:56;;;;;;;15.23;12.18;;;;;;;22.30;59.37;102287.09;5036051;28;20052;-86
2022/10/18 01:30:37;;;;;;;12.15;10.85;;;;;;;22.30;59.32;102295.19;5035281;28;20057;-87
2022/10/18 01:33:26;;;;;;;13.48;12.10;;;;;;;22.30;59.32;102289.78;5018228;28;20532;-86
2022/10/18 01:36:04;;;;;;;12.77;11.48;;;;;;;22.29;59.26;102290.75;5035264;28;20461;-86
2022/10/18 01:38:34;;;;;;;12.40;11.13;;;;;;;22.30;59.40;102295.19;5019166;28;20053;-87
2022/10/18 01:41:03;;;;;;;15.73;11.98;;;;;;;22.31;59.21;102293.34;5019092;28;20058;-87
2022/10/18 01:43:33;;;;;;;13.48;12.07;;;;;;;22.28;59.20;102278.25;5036177;28;20049;-89
2022/10/18 01:46:03;;;;;;;12.98;11.60;;;;;;;22.30;59.02;102281.69;5002463;28;20157;-88
2022/10/18 01:48:30;;;;;;;13.70;11.38;;;;;;;22.30;59.17;102286.22;5100009;28;20051;-90
2022/10/18 01:50:58;;;;;;;15.20;12.10;;;;;;;22.29;59.25;102279.13;5119057;28;20050;-89
2022/10/18 01:53:30;;;;;;;13.15;11.75;;;;;;;22.28;59.18;102275.56;5116105;28;20059;-88
2022/10/18 01:56:12;;;;;;;12.15;10.95;;;;;;;22.29;59.21;102279.97;5118396;28;20040;-89
2022/10/18 01:58:47;;;;;;;14.68;11.63;;;;;;;22.28;59.13;102271.97;5117746;28;20052;-89
2022/10/18 02:01:42;;;;;;;11.85;10.75;;;;;;;22.29;59.28;102284.50;5118080;28;20051;-88
2022/10/18 02:04:27;;;;;;;13.10;11.75;;;;;;;22.28;58.99;102275.56;5116782;28;20376;-88
2022/10/18 02:07:02;;;;;;;13.20;11.80;;;;;;;22.28;59.16;102277.38;5115672;28;20056;-89
2022/10/18 02:09:41;;;;;;;13.18;11.77;;;;;;;22.27;59.21;102271.13;5117598;28;20055;-87
2022/10/18 02:12:13;;;;;;;12.77;11.30;;;;;;;22.28;59.17;102266.56;5115563;28;20058;-86
2022/10/18 02:14:42;;;;;;;15.63;12.40;;;;;;;22.29;59.16;102268.31;5115117;28;20055;-86
2022/10/18 02:17:11;;;;;;;14.73;11.30;;;;;;;22.27;59.28;102268.41;5099111;28;20055;-86
2022/10/18 02:19:45;;;;;;;14.10;12.70;;;;;;;22.26;59.21;102265.84;5114696;28;20050;-87
2022/10/18 02:22:14;;;;;;;13.10;11.77;;;;;;;22.27;59.05;102267.56;5115903;28;20058;-86
2022/10/18 02:24:45;;;;;;;12.85;11.40;;;;;;;22.27;59.21;102268.41;5116809;28;20050;-85
2022/10/18 02:27:13;;;;;;;13.95;12.48;;;;;;;22.27;59.18;102267.56;5114926;28;20052;-85
2022/10/18 02:29:42;;;;;;;13.85;12.30;;;;;;;22.27;59.17;102262.16;5116871;28;20043;-87
2022/10/18 02:32:33;;;;;;;12.55;11.20;;;;;;;22.26;58.98;102258.63;5115909;28;20043;-86
2022/10/18 02:35:20;;;;;;;13.48;11.75;;;;;;;22.26;59.02;102258.63;5117650;28;20052;-88
2022/10/18 02:37:50;;;;;;;12.73;11.48;;;;;;;22.27;59.00;102273.81;5117562;28;20062;-86
2022/10/18 02:40:18;;;;;;;13.43;11.07;;;;;;;22.26;59.11;102265.84;5115062;28;20070;-86
2022/10/18 02:42:48;;;;;;;12.60;11.38;;;;;;;22.26;59.10;102271.25;5097636;28;20056;-86
2022/10/18 02:45:16;;;;;;;13.18;11.27;;;;;;;22.26;59.01;102255.06;5097321;28;20059;-86
2022/10/18 02:47:44;;;;;;;13.90;11.57;;;;;;;22.25;59.02;102258.75;5114736;28;20046;-84
2022/10/18 02:50:12;;;;;;;13.52;11.30;;;;;;;22.25;58.93;102250.66;5114573;28;20039;-84
2022/10/18 02:52:39;;;;;;;13.32;11.93;;;;;;;22.25;58.93;102256.91;5114636;28;20048;-84
2022/10/18 02:55:08;;;;;;;13.02;11.65;;;;;;;22.26;58.79;102249.66;5114943;28;20479;-84
2022/10/18 02:57:36;;;;;;;13.15;11.85;;;;;;;22.26;58.80;102249.66;5114131;28;20051;-84
2022/10/18 03:00:05;;;;;;;12.80;11.50;;;;;;;22.25;58.83;102259.59;5115432;28;20048;-84
2022/10/18 03:02:32;;;;;;;14.15;12.65;;;;;;;22.25;58.90;102253.34;5114166;28;20054;-87
2022/10/18 03:05:00;;;;;;;13.48;12.00;;;;;;;22.25;58.81;102256.03;5118062;27;20050;-85
2022/10/18 03:07:27;;;;;;;13.98;11.93;;;;;;;22.25;58.88;102258.75;5136781;27;20047;-87
2022/10/18 03:09:55;;;;;;;12.63;11.35;;;;;;;22.24;58.99;102255.19;5119235;27;20051;-85
2022/10/18 03:12:22;;;;;;;12.73;11.43;;;;;;;22.24;58.90;102254.31;5135806;27;20474;-85
2022/10/18 03:14:49;;;;;;;14.32;11.38;;;;;;;22.23;59.15;102244.50;5117511;27;20397;-85
2022/10/18 03:17:17;;;;;;;13.57;12.13;;;;;;;22.25;58.82;102248.81;5136027;27;20050;-87
2022/10/18 03:19:44;;;;;;;12.55;11.30;;;;;;;22.24;59.11;102248.91;5135953;27;20048;-86
2022/10/18 03:22:11;;;;;;;13.25;11.27;;;;;;;22.24;59.12;102249.78;5118266;27;20047;-86
2022/10/18 03:24:39;;;;;;;14.75;10.90;;;;;;;22.24;59.09;102249.78;5117125;28;20047;-85
2022/10/18 03:27:06;;;;;;;11.82;10.65;;;;;;;22.24;59.10;102254.31;5135519;27;20054;-85
2022/10/18 03:29:33;;;;;;;12.65;11.23;;;;;;;22.25;59.02;102253.34;5136309;27;20051;-87
2022/10/18 03:32:01;;;;;;;14.00;11.57;;;;;;;22.23;59.18;102255.28;5117519;27;20047;-89
2022/10/18 03:34:28;;;;;;;14.57;12.85;;;;;;;22.24;59.02;102259.69;5136060;27;20486;-88
2022/10/18 03:36:56;;;;;;;13.07;11.68;;;;;;;22.23;59.10;102256.13;5118486;27;20047;-88
2022/10/18 03:39:29;;;;;;;13.20;11.80;;;;;;;22.23;59.07;102257.97;5119589;28;20051;-86
2022/10/18 03:41:56;;;;;;;13.07;11.32;;;;;;;22.23;59.06;102252.59;5117222;27;20064;-86
2022/10/18 03:44:24;;;;;;;13.85;10.75;;;;;;;22.25;59.31;102258.75;5136843;28;20054;-87
2022/10/18 03:46:51;;;;;;;12.82;11.57;;;;;;;22.23;59.17;102252.59;5118090;28;20493;-85
2022/10/18 03:49:18;;;;;;;13.70;11.68;;;;;;;22.23;59.10;102260.69;5136125;28;20390;-85
2022/10/18 03:51:46;;;;;;;13.52;12.13;;;;;;;22.23;59.08;102249.88;5136030;28;20051;-86
2022/10/18 03:54:13;;;;;;;16.20;11.88;;;;;;;22.22;58.95;102254.44;5136391;28;20047;-85
2022/10/18 03:56:40;;;;;;;13.30;12.00;;;;;;;22.23;58.96;102256.13;5118183;28;20520;-87
2022/10/18 03:59:08;;;;;;;12.60;11.07;;;;;;;22.23;59.20;102256.13;5117933;28;20043;-86
2022/10/18 04:01:35;;;;;;;13.02;11.60;;;;;;;22.22;58.94;102251.72;5117824;28;20062;-85
2022/10/18 04:04:02;;;;;;;18.17;12.32;;;;;;;22.22;59.05;102257.13;5136067;28;20043;-86
2022/10/18 04:06:29;;;;;;;15.38;12.38;;;;;;;22.21;59.02;102245.47;5136579;28;20475;-86
2022/10/18 04:08:57;;;;;;;13.00;11.38;;;;;;;22.22;58.96;102251.72;5136134;28;20050;-86
2022/10/18 04:11:24;;;;;;;14.50;11.50;;;;;;;22.21;58.81;102240.09;5117769;28;20047;-88
2022/10/18 04:13:51;;;;;;;13.00;11.35;;;;;;;22.21;58.76;102245.47;5117444;28;20055;-86
2022/10/18 04:16:19;;;;;;;18.33;11.68;;;;;;;22.21;59.00;102248.19;5118198;28;20054;-88
2022/10/18 04:18:46;;;;;;;12.93;11.63;;;;;;;22.20;58.76;102241.06;5117138;28;20051;-80
2022/10/18 04:21:13;;;;;;;12.57;11.38;;;;;;;22.21;58.95;102247.31;5136182;28;20039;-87
2022/10/18 04:23:41;;;;;;;12.90;11.32;;;;;;;22.21;59.05;102250.03;5117477;28;20047;-81
2022/10/18 04:26:08;;;;;;;12.75;11.02;;;;;;;22.21;59.05;102248.19;5134357;28;20043;-82
2022/10/18 04:28:38;;;;;;;12.88;11.10;;;;;;;22.23;58.96;102247.19;5135057;28;20659;-82
2022/10/18 04:31:06;;;;;;;12.80;11.50;;;;;;;22.23;59.18;102241.78;5135860;28;20054;-86
2022/10/18 04:33:34;;;;;;;13.13;11.73;;;;;;;22.21;59.09;102240.09;5118475;28;20050;-86
2022/10/18 04:36:01;;;;;;;18.80;11.65;;;;;;;22.22;59.01;102246.34;5116543;28;20055;-86
2022/10/18 04:38:28;;;;;;;13.60;11.90;;;;;;;22.21;59.06;102232.00;5136682;28;20043;-86
2022/10/18 04:40:56;;;;;;;13.93;12.48;;;;;;;22.20;58.89;102235.69;5116102;28;20438;-86
2022/10/18 04:43:23;;;;;;;16.80;11.88;;;;;;;22.22;58.75;102235.53;5136329;28;20039;-86
2022/10/18 04:45:50;;;;;;;13.80;12.30;;;;;;;22.20;58.82;102235.69;5117818;28;20398;-88
2022/10/18 04:48:18;;;;;;;17.63;13.30;;;;;;;22.20;58.77;102232.09;5117728;28;20039;-87
2022/10/18 04:50:49;;;;;;;13.90;12.20;;;;;;;22.20;58.66;102237.47;5136580;28;20045;-87
2022/10/18 04:53:17;;;;;;;16.52;11.38;;;;;;;22.20;58.81;102230.28;5100198;27;20055;-87
2022/10/18 04:55:47;;;;;;;14.77;11.82;;;;;;;22.19;58.89;102231.22;5138746;27;20043;-88
2022/10/18 04:58:16;;;;;;;12.18;10.48;;;;;;;22.19;58.85;102235.78;5121053;27;20043;-88
2022/10/18 05:00:44;;;;;;;13.07;11.30;;;;;;;22.19;58.89;102225.84;5120868;27;20050;-87
2022/10/18 05:03:12;;;;;;;13.38;11.98;;;;;;;22.19;58.76;102233.06;5103589;27;20058;-87
2022/10/18 05:05:40;;;;;;;12.57;11.30;;;;;;;22.19;58.64;102233.06;5120492;27;20059;-89
2022/10/18 05:08:28;;;;;;;12.88;11.48;;;;;;;22.18;58.75;102234.06;5120805;27;20066;-89
2022/10/18 05:10:55;;;;;;;13.18;11.52;;;;;;;22.18;58.70;102234.91;5140126;27;20047;-85
2022/10/18 05:13:23;;;;;;;13.05;11.70;;;;;;;22.17;58.68;102227.81;5120765;27;20058;-85
2022/10/18 05:15:50;;;;;;;14.13;11.70;;;;;;;22.17;58.55;102235.03;5121493;27;20043;-87
2022/10/18 05:18:17;;;;;;;12.65;11.35;;;;;;;22.17;58.52;102235.03;5140645;27;20039;-88
2022/10/18 05:20:45;;;;;;;14.57;12.07;;;;;;;22.16;58.47;102234.19;5140354;27;20047;-88
2022/10/18 05:23:12;;;;;;;13.80;11.32;;;;;;;22.18;58.48;102231.38;5140115;27;20047;-88
2022/10/18 05:25:41;;;;;;;11.98;10.68;;;;;;;22.16;58.48;102236.88;5122635;27;20043;-88
2022/10/18 05:28:09;;;;;;;14.23;10.43;;;;;;;22.17;58.28;102233.22;5121358;27;20043;-89
2022/10/18 05:30:53;;;;;;;14.10;12.05;;;;;;;22.17;58.35;102230.50;5140798;27;20043;-89
2022/10/18 05:33:20;;;;;;;13.35;11.35;;;;;;;22.16;58.36;102231.50;5139715;27;20047;-89
2022/10/18 05:35:48;;;;;;;14.90;11.98;;;;;;;22.16;58.41;102239.59;5121982;27;20058;-90
2022/10/18 05:38:15;;;;;;;11.93;10.73;;;;;;;22.15;58.41;102232.44;5139642;27;20039;-90
2022/10/18 05:40:42;;;;;;;12.73;11.43;;;;;;;22.16;58.26;102242.28;5120619;27;20051;-90
2022/10/18 05:43:09;;;;;;;13.95;12.10;;;;;;;22.15;58.31;102236.97;5138552;27;20039;-87
2022/10/18 05:45:37;;;;;;;13.32;12.02;;;;;;;22.15;58.36;102235.13;5139027;27;20043;-88
2022/10/18 05:48:06;;;;;;;13.25;10.95;;;;;;;22.14;58.37;102238.81;5138281;27;20035;-89
2022/10/18 05:50:33;;;;;;;12.93;11.63;;;;;;;22.13;58.34;102231.72;5139523;27;20501;-89
2022/10/18 05:53:06;;;;;;;12.60;11.10;;;;;;;22.15;58.36;102239.69;5119695;27;20081;-89
2022/10/18 05:55:50;;;;;;;13.25;11.95;;;;;;;22.15;58.20;102243.22;5123712;27;20051;-88
2022/10/18 05:58:17;;;;;;;14.60;11.27;;;;;;;22.15;58.45;102240.53;5139567;27;20039;-89
2022/10/18 06:00:45;;;;;;;12.85;11.50;;;;;;;22.14;58.33;102240.66;5139255;27;20490;-90
2022/10/18 06:03:12;;;;;;;13.00;11.70;;;;;;;22.14;58.33;102243.38;5140036;27;20039;-90
2022/10/18 06:05:40;;;;;;;15.00;12.05;;;;;;;22.13;58.43;102245.19;5116851;28;20061;-89
2022/10/18 06:08:07;;;;;;;13.45;12.00;;;;;;;22.14;58.39;102249.63;5118339;28;20048;-88
2022/10/18 06:10:38;;;;;;;12.68;11.30;;;;;;;22.14;58.46;102249.63;5118860;28;20051;-88
2022/10/18 06:13:06;;;;;;;13.43;11.82;;;;;;;22.14;58.32;102244.22;5116982;28;20047;-88
2022/10/18 06:15:33;;;;;;;13.23;11.20;;;;;;;22.14;58.30;102249.63;5116808;28;20043;-88
2022/10/18 06:18:00;;;;;;;14.48;12.68;;;;;;;22.13;58.40;102239.81;5118496;28;20040;-89
2022/10/18 06:20:27;;;;;;;12.63;11.38;;;;;;;22.14;58.41;102246.06;5117958;28;20051;-88
2022/10/18 06:22:55;;;;;;;12.85;11.48;;;;;;;22.13;58.36;102245.19;5116422;28;20062;-89
2022/10/18 06:25:22;;;;;;;13.13;11.75;;;;;;;22.14;58.38;102248.75;5118437;28;20047;-90
2022/10/18 06:27:49;;;;;;;14.13;12.57;;;;;;;22.12;58.32;102240.75;5119104;28;20467;-91
2022/10/18 06:30:17;;;;;;;12.50;11.20;;;;;;;22.14;58.32;102246.06;5118887;28;20419;-91
2022/10/18 06:32:44;;;;;;;14.90;11.65;;;;;;;22.13;58.36;102245.19;5101438;28;20048;-91
2022/10/18 06:35:12;;;;;;;13.23;11.55;;;;;;;22.14;58.46;102246.91;5100863;28;20044;-91
2022/10/18 06:37:39;;;;;;;14.20;11.50;;;;;;;22.14;58.30;102255.00;5120285;28;20046;-90
2022/10/18 06:40:07;;;;;;;12.23;10.95;;;;;;;22.14;58.49;102248.75;5116030;28;20052;-91
2022/10/18 06:42:34;;;;;;;12.73;11.45;;;;;;;22.12;58.48;102256.06;5115471;28;20055;-91
2022/10/18 06:45:02;;;;;;;13.10;11.18;;;;;;;22.13;58.43;102258.69;5118365;28;20052;-91
2022/10/18 06:47:29;;;;;;;12.77;11.52;;;;;;;22.15;58.47;102261.25;5115213;28;20051;-91
2022/10/18 06:49:56;;;;;;;15.65;11.65;;;;;;;22.13;58.50;102266.78;5098352;28;20056;-89
2022/10/18 06:52:24;;;;;;;12.27;10.93;;;;;;;22.14;58.41;102265.78;5117606;28;20129;-89
2022/10/18 06:54:52;;;;;;;12.63;11.32;;;;;;;22.13;58.23;102258.69;5116246;28;20062;-91
2022/10/18 06:57:20;;;;;;;11.95;10.73;;;;;;;22.13;58.49;102263.22;5098600;28;20048;-92
2022/10/18 06:59:48;;;;;;;13.40;11.32;;;;;;;22.14;58.42;102264.94;5116068;28;20039;-90
2022/10/18 07:02:16;;;;;;;12.50;11.20;;;;;;;22.13;58.58;102266.78;5117917;28;20059;-89
2022/10/18 07:04:43;;;;;;;13.88;10.60;;;;;;;22.14;58.55;102270.34;5115681;28;20047;-89
2022/10/18 07:07:10;;;;;;;10.85;9.75;;;;;;;22.13;58.66;102274.00;5099134;28;20063;-92
2022/10/18 07:09:38;;;;;;;11.65;10.40;;;;;;;22.13;58.53;102274.88;5117106;28;20054;-91
2022/10/18 07:12:05;;;;;;;12.07;10.80;;;;;;;22.14;58.46;102271.19;5116082;28;20047;-88
2022/10/18 07:14:33;;;;;;;13.75;9.80;;;;;;;22.14;58.63;102281.97;5115455;28;20043;-91
2022/10/18 07:17:00;;;;;;;10.75;9.38;;;;;;;22.15;58.73;102274.75;5114812;28;20054;-83
2022/10/18 07:19:27;;;;;;;14.73;9.73;;;;;;;22.15;58.83;102277.44;5115991;28;20066;-89
2022/10/18 07:21:54;;;;;;;12.70;10.50;;;;;;;22.15;58.73;102278.28;5115846;28;20052;-89
2022/10/18 07:24:22;;;;;;;15.25;10.95;;;;;;;22.16;58.58;102280.03;5098263;28;20052;-89
2022/10/18 07:26:49;;;;;;;14.48;10.15;;;;;;;22.16;58.64;102284.56;5098772;28;20059;-89
2022/10/18 07:29:17;;;;;;;14.90;10.68;;;;;;;22.16;58.62;102280.03;5114549;28;20380;-86
2022/10/18 07:31:44;;;;;;;16.17;10.65;;;;;;;22.15;58.64;102274.75;5114992;28;20474;-86
2022/10/18 07:34:12;;;;;;;14.38;11.35;;;;;;;22.14;58.66;102281.97;5116860;28;20051;-86
2022/10/18 07:36:40;;;;;;;11.43;9.90;;;;;;;22.15;58.71;102277.44;5114251;28;20063;-85
2022/10/18 07:39:08;;;;;;;14.85;11.07;;;;;;;22.15;58.59;102277.44;5116300;28;20040;-86
2022/10/18 07:41:36;;;;;;;19.52;10.15;;;;;;;22.15;58.68;102278.28;5114715;28;20055;-81
2022/10/18 07:44:03;;;;;;;18.52;10.88;;;;;;;22.15;58.79;102275.59;5115343;28;20044;-84
2022/10/18 07:46:31;;;;;;;19.08;12.98;;;;;;;22.15;58.39;102275.59;5112259;28;20051;-83
2022/10/18 07:48:58;;;;;;;14.25;11.10;;;;;;;22.15;58.08;102269.34;5114608;28;20044;-79
2022/10/18 07:51:26;;;;;;;17.60;11.13;;;;;;;22.15;58.26;102275.59;5114359;28;20050;-82
2022/10/18 07:53:54;;;;;;;15.50;11.30;;;;;;;22.15;58.11;102269.34;5114577;28;20048;-83
2022/10/18 07:56:21;;;;;;;22.35;16.20;;;;;;;22.13;57.91;102274.88;5114576;28;20047;-83
2022/10/18 07:58:51;;;;;;;24.55;19.27;;;;;;;22.10;57.05;102272.38;5115850;28;20070;-83
2022/10/18 08:01:20;;;;;;;25.33;19.38;;;;;;;22.06;57.00;102281.66;5114863;28;20047;-83
2022/10/18 08:03:48;;;;;;;20.77;17.42;;;;;;;22.01;57.41;102267.66;5114882;28;20052;-82
2022/10/18 08:06:17;;;;;;;26.90;15.30;;;;;;;22.02;57.55;102282.00;5126918;28;20051;-82
2022/10/18 08:08:45;;;;;;;20.90;14.60;;;;;;;22.02;57.69;102272.06;5135245;28;20043;-82
2022/10/18 08:11:15;;;;;;;17.02;14.25;;;;;;;22.03;57.89;102278.34;5136549;28;20039;-84
2022/10/18 08:13:43;;;;;;;17.67;14.13;;;;;;;22.05;58.03;102279.94;5135294;28;20054;-88
2022/10/18 08:16:14;;;;;;;17.63;12.43;;;;;;;22.04;58.11;102275.53;5118038;28;20050;-82
2022/10/18 08:18:42;;;;;;;13.90;12.23;;;;;;;22.05;58.12;102281.78;5135473;28;20043;-82
2022/10/18 08:21:11;;;;;;;16.17;11.45;;;;;;;22.07;58.19;102279.81;5135325;28;20051;-81
2022/10/18 08:23:39;;;;;;;15.82;11.60;;;;;;;22.08;58.16;102279.72;5116907;28;20038;-80
2022/10/18 08:26:09;;;;;;;16.60;11.07;;;;;;;22.08;58.13;102278.84;5135205;28;20046;-81
2022/10/18 08:28:37;;;;;;;14.32;11.30;;;;;;;22.10;58.12;102282.28;5136253;27;20398;-81
2022/10/18 08:31:08;;;;;;;15.00;10.23;;;;;;;22.11;58.20;102279.47;5139908;27;20047;-80
2022/10/18 08:33:38;;;;;;;14.00;10.60;;;;;;;22.12;58.22;102275.81;5139823;27;20047;-80
2022/10/18 08:36:09;;;;;;;16.40;10.45;;;;;;;22.13;58.43;102274.88;5139985;27;20047;-80
2022/10/18 08:38:39;;;;;;;14.38;10.23;;;;;;;22.12;58.38;102267.72;5139526;27;20043;-82
2022/10/18 08:41:41;;;;;;;15.68;10.88;;;;;;;22.14;58.39;102273.88;5138109;27;20043;-81
2022/10/18 08:44:14;;;;;;;13.48;10.88;;;;;;;22.15;58.38;102272.91;5099818;27;20070;-80
2022/10/18 08:46:48;;;;;;;12.70;11.10;;;;;;;22.15;58.27;102263.94;5137763;27;20051;-80
2022/10/18 08:49:45;;;;;;;14.10;11.48;;;;;;;22.15;58.20;102270.22;5137976;27;20039;-81
2022/10/18 08:52:51;;;;;;;13.18;11.02;;;;;;;22.16;58.31;102269.25;5134551;27;20051;-80
2022/10/18 08:55:19;;;;;;;16.00;11.88;;;;;;;22.18;58.14;102264.59;5137763;27;20051;-80
2022/10/18 08:57:47;;;;;;;14.68;11.55;;;;;;;22.17;58.24;102260.19;5118806;27;20047;-80
2022/10/18 09:00:17;;;;;;;13.45;12.05;;;;;;;22.17;58.15;102260.19;5118836;27;20054;-80
2022/10/18 09:03:20;;;;;;;19.25;12.18;;;;;;;22.18;58.20;102261.03;5137421;27;20050;-80
2022/10/18 09:06:04;;;;;;;17.38;12.13;;;;;;;22.17;58.23;102257.47;5137753;27;20403;-80
2022/10/18 09:08:39;;;;;;;;;;;;;;;22.18;58.25;102256.50;5138266;27;20066;-80
2022/10/18 09:11:18;;;;;;;13.30;11.88;;;;;;;22.19;58.37;102255.50;5137314;27;19919;-80
2022/10/18 09:14:20;;;;;;;14.48;12.98;;;;;;;22.20;58.31;102250.97;5119118;27;20047;-81
2022/10/18 09:16:53;;;;;;;20.87;14.20;;;;;;;22.21;58.17;102252.72;5099151;27;20066;-80
2022/10/18 09:19:35;;;;;;;18.23;14.73;;;;;;;22.20;58.27;102253.66;5137450;27;20042;-80
2022/10/18 09:22:12;;;;;;;18.47;13.93;;;;;;;22.21;58.19;102245.47;5137643;27;20386;-80
2022/10/18 09:24:50;;;;;;;17.95;14.57;;;;;;;22.20;58.19;102251.84;5137294;27;20286;-81
2022/10/18 09:27:21;;;;;;;16.55;13.93;;;;;;;22.22;58.19;102257.13;5119370;27;20050;-80
2022/10/18 09:29:51;;;;;;;20.40;14.32;;;;;;;22.21;58.20;102247.31;5136830;27;20482;-80
2022/10/18 09:32:43;;;;;;;16.17;14.48;;;;;;;22.21;58.06;102256.28;5136968;27;20480;-80
2022/10/18 09:35:17;;;;;;;21.55;14.40;;;;;;;22.22;58.17;102246.34;5136816;27;20047;-80
2022/10/18 09:37:45;;;;;;;17.85;14.52;;;;;;;22.23;58.11;102250.75;5137277;27;20050;-80
2022/10/18 09:40:24;;;;;;;21.08;16.25;;;;;;;22.23;58.37;102241.78;5135926;27;20043;-80
2022/10/18 09:42:56;;;;;;;22.85;17.38;;;;;;;22.24;58.26;102243.50;5136890;27;20043;-80
2022/10/18 09:45:39;;;;;;;21.90;18.35;;;;;;;22.25;58.27;102245.25;5118651;27;20046;-80
2022/10/18 09:48:31;;;;;;;21.88;17.15;;;;;;;22.24;58.26;102248.91;5117918;27;20498;-81
2022/10/18 09:51:04;;;;;;;25.15;19.25;;;;;;;22.22;58.29;102238.25;5118212;27;20039;-80
2022/10/18 09:53:49;;;;;;;26.27;17.48;;;;;;;22.24;58.34;102232.72;5137088;27;20058;-81
2022/10/18 09:56:24;;;;;;;21.33;16.27;;;;;;;22.24;58.38;102235.41;5137123;27;20058;-81
2022/10/18 09:58:51;;;;;;;23.45;17.15;;;;;;;22.24;58.33;102230.03;5136441;27;20047;-81
2022/10/18 10:01:26;;;;;;;24.58;20.05;;;;;;;22.24;58.30;102236.31;5136449;27;20407;-77
2022/10/18 10:03:53;;;;;;;28.83;19.10;;;;;;;22.24;58.41;102232.72;5136616;27;20054;-81
2022/10/18 10:06:33;;;;;;;23.70;19.00;;;;;;;22.25;58.59;102235.31;5137450;27;20066;-82
2022/10/18 10:09:06;;;;;;;24.55;18.48;;;;;;;22.25;58.40;102220.97;5118410;27;20058;-82
2022/10/18 10:11:44;;;;;;;25.98;19.88;;;;;;;22.25;58.45;102229.06;5137580;27;20375;-87
2022/10/18 10:14:22;;;;;;;25.42;19.58;;;;;;;22.26;58.60;102225.38;5137839;27;20501;-85
2022/10/18 10:16:49;;;;;;;26.02;21.58;;;;;;;22.25;58.54;102229.94;5118416;27;20051;-86
2022/10/18 10:19:22;;;;;;;25.25;20.35;;;;;;;22.27;58.66;102227.09;5119176;27;20042;-85
2022/10/18 10:21:53;;;;;;;29.23;23.10;;;;;;;22.26;58.68;102214.59;5120471;27;20069;-85
2022/10/18 10:24:33;;;;;;;31.13;23.75;;;;;;;22.25;58.91;102210.19;5136847;27;20047;-85
2022/10/18 10:27:04;;;;;;;29.27;21.55;;;;;;;22.27;58.81;102221.69;5136894;27;20043;-86
2022/10/18 10:29:44;;;;;;;26.77;21.75;;;;;;;22.28;58.98;102216.22;5119264;27;20042;-85
2022/10/18 10:32:13;;;;;;;27.20;21.15;;;;;;;22.26;58.77;102212.75;5102039;27;20051;-85
2022/10/18 10:34:41;;;;;;;29.90;22.02;;;;;;;22.27;58.90;102205.53;5136601;27;20074;-81
2022/10/18 10:37:27;;;;;;;31.88;23.15;;;;;;;22.27;58.90;102200.97;5136753;27;20058;-86
2022/10/18 10:40:12;;;;;;;;;;;;;;;22.27;58.86;102200.97;5098839;28;20043;-84
2022/10/18 10:43:05;;;;;;;31.70;21.63;;;;;;;22.26;58.88;102190.31;5116403;28;20394;-85
2022/10/18 10:46:02;;;;;;;29.73;22.02;;;;;;;22.28;58.86;102185.66;5101384;28;20055;-84
2022/10/18 10:48:33;;;;;;;30.08;22.05;;;;;;;22.28;58.89;102183.84;5116282;28;20052;-85
2022/10/18 10:51:06;;;;;;;27.52;22.60;;;;;;;22.28;58.83;102182.94;5115978;28;20402;-84
2022/10/18 10:53:36;;;;;;;30.75;24.20;;;;;;;22.29;58.88;102173.91;5116152;28;20483;-84
2022/10/18 10:56:05;;;;;;;29.08;23.02;;;;;;;22.28;58.88;102169.47;5098518;28;20044;-85
2022/10/18 10:58:36;;;;;;;28.75;22.67;;;;;;;22.28;58.90;102156.84;5116035;28;20051;-85
2022/10/18 11:01:20;;;;;;;26.60;22.08;;;;;;;22.29;58.98;102161.28;5116823;28;20044;-85
2022/10/18 11:03:50;;;;;;;29.63;22.98;;;;;;;22.29;58.87;102165.81;5098432;28;20046;-84
2022/10/18 11:06:29;;;;;;;32.92;24.25;;;;;;;22.28;59.00;102161.38;5097890;28;20044;-84
2022/10/18 11:08:58;;;;;;;31.65;24.25;;;;;;;22.29;58.71;102152.31;5079736;28;20055;-81
2022/10/18 11:11:33;;;;;;;33.40;25.25;;;;;;;22.28;58.93;102148.75;5115344;28;20043;-85
2022/10/18 11:14:26;;;;;;;33.10;24.83;;;;;;;22.29;59.07;102145.09;5097333;28;20055;-85
2022/10/18 11:16:53;;;;;;;;;;;;;;;22.29;58.83;102139.69;5089694;28;20054;-84
2022/10/18 11:19:51;;;;;;;33.17;24.00;;;;;;;22.30;58.87;102137.84;5119558;27;19927;-84
2022/10/18 11:22:24;;;;;;;34.55;25.80;;;;;;;22.30;58.80;102118.97;5136350;27;20046;-85
2022/10/18 11:24:51;;;;;;;35.83;24.63;;;;;;;22.30;58.84;102119.81;5117265;27;20055;-84
2022/10/18 11:27:41;;;;;;;34.72;24.23;;;;;;;22.31;58.73;102112.56;5117073;28;20047;-85
2022/10/18 11:30:29;;;;;;;29.52;23.88;;;;;;;22.30;58.74;102108.16;5136122;27;20043;-85